Main page

Airports :

Bauru, São Paulo, Brazil

Bauru Airport

latitude: 22-19S, longitude: 049-04W, elevation: 590 m

Current weather observation

The report was made 2 hours and 49 minutes ago, at 18:00 UTC
Wind 4 kt from the Northeast
Temperature 32°C
Humidity 49%
Pressure 1012 hPa
Visibility 10 km or more
Scattered clouds at a height of 4700 ft
Broken clouds at a height of 7000 ft

METAR: SBBU 271800Z 05004KT 9999 SCT047 BKN070 32/20 Q1012

Time: 18:49 (20:49 UTC)


The report was made 6 hours and 19 minutes ago, at 14:30 UTC
Forecast valid from 27 at 18 UTC to 28 at 06 UTC
Wind 6 kt from the East
Visibility 10 km or more
no clouds below 1500 m and no cumulonimbus

TAF: SBBU 271430Z 2718/2806 10006KT CAVOK TX32/2718Z TN22/2805Z RMK PEB


Weather observations and forecasts of more than 4000 airports (METAR and TAF reports).

The available stations are represented by yellow and red dots on the map.

Hover mouse over dot to see the name of the station.

Then click to see weather observations and forecasts.

To change the map : click on the green buttons with a black cross to zoom in, on the green button with a dash to zoom out, or on the green arrows for adjacent maps.